Wetterdaten: Woche 04.05.26 - 10.05.26 (KW19)
Datum Zeit Außen Temp. Server Temp. +20m Feuchte Feuchte +20m Luftdruck Regen Wind Richtung Sonnenschein Helligkeit Solar Taupunkt
04.05.2026 00:00 16,9 °C 23,8 °C 17,4 °C 52 % 15 % 1012,3 hPa 0,00 l/m² 51,3 km/h (7 Bft) S-SW 0,00 h 0 lux 0 W/m² 7,1 °C
04.05.2026 01:00 15,8 °C 23,6 °C 16,0 °C 60 % 20 % 1011,4 hPa 0,00 l/m² 51,3 km/h (7 Bft) S-SW 0,00 h 0 lux 0 W/m² 8,1 °C
04.05.2026 02:00 14,3 °C 23,2 °C 14,4 °C 68 % 31 % 1011,5 hPa 0,00 l/m² 51,3 km/h (7 Bft) S-SW 0,00 h 0 lux 0 W/m² 8,3 °C
04.05.2026 03:00 13,1 °C 23,0 °C 13,1 °C 72 % 36 % 1011,7 hPa 0,00 l/m² 51,3 km/h (7 Bft) S-SW 0,00 h 0 lux 0 W/m² 8,1 °C
04.05.2026 04:00 11,5 °C 22,6 °C 11,8 °C 76 % 42 % 1012,9 hPa 0,00 l/m² 51,3 km/h (7 Bft) S-SW 0,00 h 0 lux 0 W/m² 7,5 °C
04.05.2026 05:00 10,9 °C 22,2 °C 11,0 °C 78 % 46 % 1012,7 hPa 0,00 l/m² 51,3 km/h (7 Bft) S-SW 0,00 h 85 lux 0 W/m² 7,2 °C
04.05.2026 06:00 11,8 °C 22,0 °C 12,0 °C 76 % 46 % 1012,8 hPa 0,00 l/m² 51,3 km/h (7 Bft) S-SW 0,00 h 1,51 klux 10 W/m² 7,7 °C
04.05.2026 07:00 13,2 °C 21,9 °C 13,6 °C 74 % 43 % 1012,7 hPa 0,00 l/m² 51,3 km/h (7 Bft) S-SW 0,00 h 5,48 klux 36 W/m² 8,6 °C
04.05.2026 08:00 15,0 °C 21,9 °C 16,6 °C 67 % 35 % 1012,5 hPa 0,00 l/m² 51,3 km/h (7 Bft) S-SW 0,00 h 15,1 klux 99 W/m² 8,8 °C
04.05.2026 09:00 16,5 °C 22,2 °C 18,3 °C 63 % 29 % 1013,4 hPa 0,00 l/m² 51,3 km/h (7 Bft) S-SW 0,00 h 21,0 klux 137 W/m² 9,3 °C
04.05.2026 10:00 17,0 °C 22,4 °C 18,9 °C 63 % 28 % 1013,3 hPa 0,00 l/m² 51,3 km/h (7 Bft) S-SW 0,00 h 28,2 klux 184 W/m² 9,9 °C
04.05.2026 11:00 18,7 °C 23,2 °C 20,0 °C 61 % 26 % 1013,2 hPa 0,00 l/m² 51,3 km/h (7 Bft) S-SW 1,00 h 67,1 klux 437 W/m² 10,9 °C
04.05.2026 12:00 20,4 °C 23,9 °C 22,3 °C 55 % 17 % 1012,7 hPa 0,00 l/m² 51,3 km/h (7 Bft) S-SW 1,00 h 79,8 klux 520 W/m² 11,0 °C
04.05.2026 13:00 21,7 °C 24,3 °C 23,6 °C 50 % 15 % 1011,8 hPa 0,00 l/m² 51,3 km/h (7 Bft) S-SW 1,00 h 94,9 klux 618 W/m² 10,7 °C
04.05.2026 14:00 21,0 °C 24,5 °C 22,7 °C 52 % 15 % 1011,9 hPa 0,00 l/m² 51,3 km/h (7 Bft) S-SW 0,75 h 78,3 klux 510 W/m² 10,7 °C
04.05.2026 15:00 22,3 °C 25,0 °C 24,1 °C 47 % 15 % 1011,2 hPa 0,00 l/m² 51,3 km/h (7 Bft) S-SW 1,00 h 73,2 klux 477 W/m² 10,4 °C
04.05.2026 16:00 22,9 °C 25,7 °C 24,3 °C 44 % 15 % 1010,7 hPa 0,00 l/m² 51,3 km/h (7 Bft) S-SW 1,00 h 64,7 klux 422 W/m² 9,8 °C
04.05.2026 17:00 21,6 °C 25,8 °C 22,7 °C 48 % 15 % 1010,8 hPa 0,00 l/m² 51,3 km/h (7 Bft) S-SW 0,00 h 11,0 klux 72 W/m² 10,0 °C
04.05.2026 18:00 19,6 °C 25,3 °C 20,2 °C 59 % 20 % 1011,0 hPa 0,00 l/m² 51,3 km/h (7 Bft) S-SW 0,00 h 4,44 klux 29 W/m² 11,2 °C
04.05.2026 19:00 17,1 °C 24,8 °C 17,4 °C 73 % 39 % 1011,3 hPa 0,22 l/m² 51,3 km/h (7 Bft) S-SW 0,00 h 3,43 klux 22 W/m² 12,2 °C
04.05.2026 20:00 15,2 °C 24,3 °C 15,9 °C 80 % 44 % 1012,0 hPa 1,98 l/m² 51,3 km/h (7 Bft) S-SW 0,00 h 348 lux 3 W/m² 11,6 °C
04.05.2026 21:00 13,7 °C 23,7 °C 13,9 °C 83 % 74 % 1012,6 hPa 2,31 l/m² 51,3 km/h (7 Bft) S-SW 0,00 h 29 lux 0 W/m² 10,8 °C
04.05.2026 22:00 13,9 °C 23,6 °C 13,9 °C 83 % 87 % 1012,6 hPa 0,22 l/m² 51,3 km/h (7 Bft) S-SW 0,00 h 0 lux 0 W/m² 11,0 °C
04.05.2026 23:00 13,9 °C 23,4 °C 13,5 °C 83 % 86 % 1012,6 hPa 0,00 l/m² 51,3 km/h (7 Bft) S-SW 0,00 h 0 lux 0 W/m² 11,0 °C
05.05.2026 00:00 13,7 °C 23,2 °C 13,2 °C 84 % 87 % 1011,6 hPa 0,11 l/m² 51,3 km/h (7 Bft) S-SW 0,00 h 0 lux 0 W/m² 11,0 °C
05.05.2026 01:00 13,3 °C 23,0 °C 12,5 °C 83 % 91 % 1011,7 hPa 0,11 l/m² 51,3 km/h (7 Bft) S-SW 0,00 h 0 lux 0 W/m² 10,4 °C
05.05.2026 02:00 12,8 °C 22,8 °C 11,9 °C 83 % 92 % 1010,9 hPa 0,11 l/m² 51,3 km/h (7 Bft) S-SW 0,00 h 0 lux 0 W/m² 10,0 °C
05.05.2026 03:00 12,9 °C 22,6 °C 11,9 °C 83 % 93 % 1010,7 hPa 0,00 l/m² 51,3 km/h (7 Bft) S-SW 0,00 h 0 lux 0 W/m² 10,1 °C
05.05.2026 04:00 13,1 °C 22,3 °C 11,9 °C 83 % 93 % 1010,6 hPa 0,00 l/m² 51,3 km/h (7 Bft) S-SW 0,00 h 0 lux 0 W/m² 10,3 °C
05.05.2026 05:00 13,1 °C 22,1 °C 11,6 °C 83 % 93 % 1010,4 hPa 0,00 l/m² 51,3 km/h (7 Bft) S-SW 0,00 h 52 lux 0 W/m² 10,3 °C
05.05.2026 06:00 12,8 °C 21,9 °C 11,2 °C 83 % 94 % 1010,4 hPa 0,44 l/m² 51,3 km/h (7 Bft) S-SW 0,00 h 1,33 klux 9 W/m² 10,0 °C
05.05.2026 07:00 12,5 °C 21,7 °C 11,1 °C 83 % 94 % 1009,7 hPa 0,22 l/m² 51,3 km/h (7 Bft) S-SW 0,00 h 1,94 klux 13 W/m² 9,7 °C
05.05.2026 08:00 13,0 °C 21,6 °C 11,7 °C 84 % 94 % 1009,6 hPa 0,00 l/m² 51,3 km/h (7 Bft) S-SW 0,00 h 6,10 klux 40 W/m² 10,3 °C
05.05.2026 09:00 14,3 °C 21,5 °C 13,1 °C 85 % 90 % 1009,5 hPa 0,00 l/m² 51,3 km/h (7 Bft) S-SW 0,00 h 8,91 klux 58 W/m² 11,7 °C
05.05.2026 10:00 15,9 °C 21,7 °C 15,1 °C 84 % 75 % 1009,3 hPa 0,00 l/m² 51,3 km/h (7 Bft) S-SW 0,00 h 21,2 klux 138 W/m² 13,1 °C
05.05.2026 11:00 17,1 °C 22,0 °C 17,3 °C 78 % 50 % 1009,2 hPa 0,00 l/m² 51,3 km/h (7 Bft) S-SW 0,00 h 18,5 klux 121 W/m² 13,2 °C
05.05.2026 12:00 18,0 °C 22,4 °C 18,7 °C 73 % 45 % 1008,6 hPa 0,00 l/m² 51,3 km/h (7 Bft) S-SW 0,25 h 45,6 klux 297 W/m² 13,0 °C
05.05.2026 13:00 19,7 °C 23,2 °C 20,4 °C 63 % 40 % 1007,9 hPa 0,00 l/m² 51,3 km/h (7 Bft) S-SW 0,75 h 46,4 klux 302 W/m² 12,4 °C
05.05.2026 14:00 20,7 °C 23,5 °C 21,6 °C 59 % 38 % 1007,3 hPa 0,00 l/m² 51,3 km/h (7 Bft) S-SW 1,00 h 69,5 klux 453 W/m² 12,3 °C
05.05.2026 15:00 20,3 °C 23,8 °C 19,8 °C 61 % 43 % 1006,8 hPa 0,00 l/m² 51,3 km/h (7 Bft) S-SW 0,50 h 36,6 klux 239 W/m² 12,6 °C
05.05.2026 16:00 17,4 °C 23,6 °C 17,2 °C 71 % 51 % 1007,1 hPa 0,11 l/m² 51,3 km/h (7 Bft) S-SW 0,00 h 10,3 klux 67 W/m² 12,0 °C
05.05.2026 17:00 16,6 °C 23,3 °C 16,7 °C 78 % 56 % 1006,4 hPa 0,11 l/m² 51,3 km/h (7 Bft) S-SW 0,00 h 20,1 klux 131 W/m² 12,6 °C
05.05.2026 18:00 16,6 °C 23,0 °C 16,5 °C 75 % 50 % 1006,2 hPa 0,00 l/m² 51,3 km/h (7 Bft) S-SW 0,00 h 8,37 klux 55 W/m² 12,1 °C
05.05.2026 19:00 15,5 °C 22,8 °C 15,5 °C 77 % 56 % 1006,3 hPa 0,00 l/m² 51,3 km/h (7 Bft) S-SW 0,00 h 2,12 klux 14 W/m² 11,5 °C
05.05.2026 20:00 14,0 °C 22,3 °C 13,9 °C 82 % 72 % 1006,4 hPa 0,55 l/m² 51,3 km/h (7 Bft) S-SW 0,00 h 487 lux 4 W/m² 10,9 °C
05.05.2026 21:00 12,9 °C 22,1 °C 12,9 °C 84 % 86 % 1006,5 hPa 0,66 l/m² 51,3 km/h (7 Bft) S-SW 0,00 h 22 lux 0 W/m² 10,3 °C
05.05.2026 22:00 12,8 °C 22,0 °C 12,5 °C 84 % 88 % 1006,6 hPa 0,99 l/m² 51,3 km/h (7 Bft) S-SW 0,00 h 0 lux 0 W/m² 10,1 °C
05.05.2026 23:00 12,4 °C 21,7 °C 12,1 °C 83 % 90 % 1006,6 hPa 2,09 l/m² 51,3 km/h (7 Bft) S-SW 0,00 h 0 lux 0 W/m² 9,6 °C
06.05.2026 00:00 12,1 °C 21,5 °C 11,6 °C 83 % 90 % 1005,6 hPa 1,43 l/m² 51,3 km/h (7 Bft) S-SW 0,00 h 0 lux 0 W/m² 9,3 °C
06.05.2026 01:00 11,7 °C 21,4 °C 11,3 °C 83 % 91 % 1005,6 hPa 3,85 l/m² 51,3 km/h (7 Bft) S-SW 0,00 h 0 lux 0 W/m² 8,9 °C
06.05.2026 02:00 11,1 °C 21,1 °C 10,6 °C 83 % 91 % 1005,7 hPa 2,86 l/m² 51,3 km/h (7 Bft) S-SW 0,00 h 0 lux 0 W/m² 8,3 °C
06.05.2026 03:00 10,9 °C 21,0 °C 10,3 °C 83 % 93 % 1004,9 hPa 3,63 l/m² 51,3 km/h (7 Bft) S-SW 0,00 h 0 lux 0 W/m² 8,1 °C
06.05.2026 04:00 10,8 °C 20,8 °C 10,1 °C 83 % 94 % 1004,7 hPa 2,86 l/m² 51,3 km/h (7 Bft) S-SW 0,00 h 0 lux 0 W/m² 8,1 °C
06.05.2026 05:00 10,8 °C 20,6 °C 9,8 °C 84 % 95 % 1004,4 hPa 2,31 l/m² 51,3 km/h (7 Bft) S-SW 0,00 h 80 lux 0 W/m² 8,2 °C
06.05.2026 06:00 10,6 °C 20,5 °C 9,6 °C 84 % 95 % 1004,5 hPa 0,22 l/m² 51,3 km/h (7 Bft) S-SW 0,00 h 667 lux 4 W/m² 8,0 °C
06.05.2026 07:00 10,7 °C 20,3 °C 9,8 °C 84 % 94 % 1004,1 hPa 0,11 l/m² 51,3 km/h (7 Bft) S-SW 0,00 h 2,70 klux 18 W/m² 8,1 °C
06.05.2026 08:00 11,0 °C 20,2 °C 10,2 °C 84 % 94 % 1004,7 hPa 0,55 l/m² 51,3 km/h (7 Bft) S-SW 0,00 h 6,22 klux 41 W/m² 8,4 °C
06.05.2026 09:00 11,6 °C 20,2 °C 11,1 °C 84 % 90 % 1004,6 hPa 0,22 l/m² 51,3 km/h (7 Bft) S-SW 0,00 h 13,7 klux 89 W/m² 9,0 °C
06.05.2026 10:00 12,4 °C 20,2 °C 11,8 °C 84 % 90 % 1004,5 hPa 0,55 l/m² 51,3 km/h (7 Bft) S-SW 0,00 h 20,6 klux 134 W/m² 9,8 °C
06.05.2026 11:00 14,6 °C 20,4 °C 14,0 °C 84 % 66 % 1004,3 hPa 0,11 l/m² 51,3 km/h (7 Bft) S-SW 0,50 h 35,0 klux 228 W/m² 11,8 °C
06.05.2026 12:00 14,0 °C 20,5 °C 13,6 °C 82 % 59 % 1004,4 hPa 0,00 l/m² 51,3 km/h (7 Bft) S-SW 0,00 h 26,7 klux 174 W/m² 10,9 °C
06.05.2026 13:00 14,1 °C 20,5 °C 14,0 °C 82 % 64 % 1004,4 hPa 0,77 l/m² 51,3 km/h (7 Bft) S-SW 0,00 h 10,0 klux 65 W/m² 11,0 °C
06.05.2026 14:00 13,1 °C 20,3 °C 13,7 °C 85 % 84 % 1004,5 hPa 7,92 l/m² 51,3 km/h (7 Bft) S-SW 0,00 h 19,9 klux 130 W/m² 10,6 °C
06.05.2026 15:00 14,5 °C 20,7 °C 17,6 °C 82 % 51 % 1004,3 hPa 0,00 l/m² 51,3 km/h (7 Bft) S-SW 0,75 h 45,9 klux 299 W/m² 11,4 °C
06.05.2026 16:00 16,9 °C 21,1 °C 17,5 °C 75 % 48 % 1004,1 hPa 0,00 l/m² 51,3 km/h (7 Bft) S-SW 0,50 h 50,5 klux 329 W/m² 12,5 °C
06.05.2026 17:00 16,2 °C 21,3 °C 15,9 °C 78 % 54 % 1004,1 hPa 0,00 l/m² 51,3 km/h (7 Bft) S-SW 1,00 h 42,8 klux 279 W/m² 12,3 °C
06.05.2026 18:00 14,4 °C 21,1 °C 14,4 °C 82 % 63 % 1004,3 hPa 0,00 l/m² 51,3 km/h (7 Bft) S-SW 0,25 h 13,0 klux 85 W/m² 11,4 °C
06.05.2026 19:00 12,8 °C 20,8 °C 12,3 °C 85 % 86 % 1005,3 hPa 0,00 l/m² 51,3 km/h (7 Bft) S-SW 0,00 h 4,13 klux 27 W/m² 10,3 °C
06.05.2026 20:00 11,9 °C 20,4 °C 11,3 °C 85 % 90 % 1005,6 hPa 0,22 l/m² 51,3 km/h (7 Bft) S-SW 0,00 h 313 lux 3 W/m² 9,4 °C
06.05.2026 21:00 10,9 °C 20,1 °C 9,9 °C 83 % 94 % 1006,5 hPa 0,66 l/m² 51,3 km/h (7 Bft) S-SW 0,00 h 32 lux 0 W/m² 8,1 °C
06.05.2026 22:00 10,1 °C 19,5 °C 8,2 °C 84 % 95 % 1006,8 hPa 0,00 l/m² 51,3 km/h (7 Bft) S-SW 0,00 h 0 lux 0 W/m² 7,4 °C
06.05.2026 23:00 9,3 °C 19,2 °C 7,0 °C 84 % 95 % 1007,4 hPa 0,11 l/m² 51,3 km/h (7 Bft) S-SW 0,00 h 0 lux 0 W/m² 6,7 °C
07.05.2026 00:00 8,9 °C 19,0 °C 6,4 °C 84 % 95 % 1008,0 hPa 0,00 l/m² 51,3 km/h (7 Bft) S-SW 0,00 h 0 lux 0 W/m² 6,3 °C
07.05.2026 01:00 9,0 °C 18,8 °C 6,2 °C 84 % 95 % 1008,0 hPa 0,11 l/m² 51,3 km/h (7 Bft) S-SW 0,00 h 0 lux 0 W/m² 6,4 °C
07.05.2026 02:00 9,0 °C 18,7 °C 6,1 °C 84 % 95 % 1008,0 hPa 0,33 l/m² 51,3 km/h (7 Bft) S-SW 0,00 h 0 lux 0 W/m² 6,4 °C
07.05.2026 03:00 8,9 °C 18,6 °C 6,1 °C 85 % 95 % 1008,0 hPa 0,88 l/m² 51,3 km/h (7 Bft) S-SW 0,00 h 0 lux 0 W/m² 6,5 °C
07.05.2026 04:00 9,0 °C 18,5 °C 5,9 °C 85 % 95 % 1008,5 hPa 0,77 l/m² 51,3 km/h (7 Bft) S-SW 0,00 h 0 lux 0 W/m² 6,6 °C
07.05.2026 05:00 8,9 °C 18,3 °C 5,7 °C 85 % 95 % 1009,0 hPa 0,00 l/m² 51,3 km/h (7 Bft) S-SW 0,00 h 71 lux 0 W/m² 6,6 °C
07.05.2026 06:00 9,3 °C 18,2 °C 5,6 °C 85 % 95 % 1009,2 hPa 0,00 l/m² 51,3 km/h (7 Bft) S-SW 0,00 h 1,06 klux 7 W/m² 6,9 °C
07.05.2026 07:00 9,2 °C 18,0 °C 5,6 °C 85 % 95 % 1010,0 hPa 0,00 l/m² 51,3 km/h (7 Bft) S-SW 0,00 h 3,68 klux 24 W/m² 6,8 °C
07.05.2026 08:00 8,9 °C 17,6 °C 5,8 °C 86 % 94 % 1011,1 hPa 0,00 l/m² 51,3 km/h (7 Bft) S-SW 0,00 h 5,52 klux 36 W/m² 6,7 °C
07.05.2026 09:00 8,3 °C 17,3 °C 6,3 °C 87 % 95 % 1011,9 hPa 0,11 l/m² 51,3 km/h (7 Bft) S-SW 0,00 h 12,5 klux 82 W/m² 6,2 °C
07.05.2026 10:00 9,8 °C 17,5 °C 7,7 °C 85 % 75 % 1012,3 hPa 0,00 l/m² 51,3 km/h (7 Bft) S-SW 0,00 h 14,2 klux 92 W/m² 7,4 °C
07.05.2026 11:00 10,1 °C 17,6 °C 7,9 °C 82 % 60 % 1013,0 hPa 0,00 l/m² 51,3 km/h (7 Bft) S-SW 0,00 h 18,7 klux 122 W/m² 7,0 °C
07.05.2026 12:00 10,4 °C 17,6 °C 8,9 °C 80 % 55 % 1013,8 hPa 0,00 l/m² 51,3 km/h (7 Bft) S-SW 0,00 h 17,0 klux 111 W/m² 7,0 °C
07.05.2026 13:00 10,5 °C 17,5 °C 9,3 °C 79 % 56 % 1014,0 hPa 0,00 l/m² 51,3 km/h (7 Bft) S-SW 0,00 h 19,9 klux 130 W/m² 7,0 °C
07.05.2026 14:00 10,8 °C 17,5 °C 9,8 °C 76 % 54 % 1014,8 hPa 0,00 l/m² 51,3 km/h (7 Bft) S-SW 0,00 h 26,5 klux 172 W/m² 6,7 °C
07.05.2026 15:00 10,6 °C 17,5 °C 10,0 °C 75 % 55 % 1015,0 hPa 0,00 l/m² 51,3 km/h (7 Bft) S-SW 0,00 h 23,8 klux 155 W/m² 6,4 °C
07.05.2026 16:00 10,2 °C 17,3 °C 9,4 °C 77 % 58 % 1015,3 hPa 0,00 l/m² 51,3 km/h (7 Bft) S-SW 0,00 h 14,7 klux 96 W/m² 6,3 °C
07.05.2026 17:00 10,2 °C 17,2 °C 9,7 °C 75 % 54 % 1016,1 hPa 0,00 l/m² 51,3 km/h (7 Bft) S-SW 0,00 h 10,7 klux 70 W/m² 5,9 °C
07.05.2026 18:00 9,9 °C 17,1 °C 9,3 °C 75 % 55 % 1016,1 hPa 0,00 l/m² 51,3 km/h (7 Bft) S-SW 0,00 h 5,77 klux 38 W/m² 5,7 °C
07.05.2026 19:00 9,6 °C 17,0 °C 9,2 °C 76 % 55 % 1016,4 hPa 0,00 l/m² 51,3 km/h (7 Bft) S-SW 0,00 h 2,79 klux 18 W/m² 5,6 °C
07.05.2026 20:00 9,3 °C 16,8 °C 9,0 °C 77 % 56 % 1017,2 hPa 0,00 l/m² 51,3 km/h (7 Bft) S-SW 0,00 h 784 lux 5 W/m² 5,5 °C
07.05.2026 21:00 9,2 °C 16,7 °C 8,7 °C 78 % 59 % 1017,2 hPa 0,00 l/m² 51,3 km/h (7 Bft) S-SW 0,00 h 59 lux 0 W/m² 5,6 °C
07.05.2026 22:00 8,9 °C 16,7 °C 8,4 °C 80 % 63 % 1018,3 hPa 0,00 l/m² 51,3 km/h (7 Bft) S-SW 0,00 h 0 lux 0 W/m² 5,6 °C
07.05.2026 23:00 8,6 °C 16,5 °C 8,2 °C 82 % 75 % 1018,3 hPa 0,00 l/m² 51,3 km/h (7 Bft) S-SW 0,00 h 0 lux 0 W/m² 5,6 °C
08.05.2026 00:00 8,5 °C 16,4 °C 8,0 °C 84 % 85 % 1018,3 hPa 0,00 l/m² 51,3 km/h (7 Bft) S-SW 0,00 h 0 lux 0 W/m² 5,9 °C
08.05.2026 01:00 8,4 °C 16,3 °C 7,7 °C 85 % 87 % 1018,4 hPa 0,00 l/m² 51,3 km/h (7 Bft) S-SW 0,00 h 0 lux 0 W/m² 5,9 °C
08.05.2026 02:00 8,0 °C 16,1 °C 7,3 °C 85 % 90 % 1018,4 hPa 0,00 l/m² 51,3 km/h (7 Bft) S-SW 0,00 h 0 lux 0 W/m² 5,7 °C
08.05.2026 03:00 7,8 °C 16,1 °C 7,1 °C 86 % 91 % 1018,4 hPa 0,00 l/m² 51,3 km/h (7 Bft) S-SW 0,00 h 0 lux 0 W/m² 5,6 °C
08.05.2026 04:00 7,6 °C 16,0 °C 6,7 °C 86 % 91 % 1018,4 hPa 0,00 l/m² 51,3 km/h (7 Bft) S-SW 0,00 h 0 lux 0 W/m² 5,4 °C
08.05.2026 05:00 6,7 °C 15,8 °C 5,8 °C 86 % 93 % 1018,5 hPa 0,00 l/m² 51,3 km/h (7 Bft) S-SW 0,00 h 471 lux 5 W/m² 4,6 °C
08.05.2026 06:00 6,2 °C 15,7 °C 6,3 °C 87 % 90 % 1018,6 hPa 0,00 l/m² 51,3 km/h (7 Bft) S-SW 0,50 h 7,24 klux 47 W/m² 4,1 °C
08.05.2026 07:00 8,0 °C 15,8 °C 8,2 °C 85 % 68 % 1018,7 hPa 0,00 l/m² 51,3 km/h (7 Bft) S-SW 0,00 h 11,1 klux 73 W/m² 5,6 °C
08.05.2026 08:00 10,9 °C 16,0 °C 11,9 °C 76 % 50 % 1019,1 hPa 0,00 l/m² 51,3 km/h (7 Bft) S-SW 0,00 h 20,6 klux 134 W/m² 6,9 °C
08.05.2026 09:00 11,5 °C 16,4 °C 12,3 °C 71 % 46 % 1019,0 hPa 0,00 l/m² 51,3 km/h (7 Bft) S-SW 0,00 h 15,9 klux 103 W/m² 6,4 °C
08.05.2026 10:00 11,4 °C 16,6 °C 12,1 °C 70 % 48 % 1019,3 hPa 0,00 l/m² 51,3 km/h (7 Bft) S-SW 0,50 h 51,4 klux 335 W/m² 6,2 °C
08.05.2026 11:00 11,3 °C 16,6 °C 11,9 °C 70 % 49 % 1020,1 hPa 0,00 l/m² 51,3 km/h (7 Bft) S-SW 0,00 h 19,8 klux 129 W/m² 6,1 °C
08.05.2026 12:00 11,5 °C 16,5 °C 12,3 °C 70 % 47 % 1020,1 hPa 0,00 l/m² 51,3 km/h (7 Bft) S-SW 0,00 h 15,3 klux 100 W/m² 6,2 °C
08.05.2026 13:00 12,1 °C 16,5 °C 11,8 °C 67 % 46 % 1020,0 hPa 0,00 l/m² 51,3 km/h (7 Bft) S-SW 0,00 h 17,9 klux 117 W/m² 6,1 °C
08.05.2026 14:00 12,5 °C 16,6 °C 13,1 °C 65 % 44 % 1020,0 hPa 0,00 l/m² 51,3 km/h (7 Bft) S-SW 0,00 h 15,3 klux 100 W/m² 6,0 °C
08.05.2026 15:00 12,2 °C 16,6 °C 12,9 °C 67 % 46 % 1019,5 hPa 0,00 l/m² 51,3 km/h (7 Bft) S-SW 0,00 h 11,4 klux 74 W/m² 6,3 °C
08.05.2026 16:00 11,8 °C 16,6 °C 12,1 °C 68 % 48 % 1019,5 hPa 0,00 l/m² 51,3 km/h (7 Bft) S-SW 0,00 h 10,8 klux 70 W/m² 6,0 °C
08.05.2026 17:00 11,7 °C 16,5 °C 12,1 °C 69 % 49 % 1019,0 hPa 0,00 l/m² 51,3 km/h (7 Bft) S-SW 0,00 h 7,61 klux 50 W/m² 6,1 °C
08.05.2026 18:00 11,5 °C 16,4 °C 11,6 °C 70 % 50 % 1019,0 hPa 0,00 l/m² 51,3 km/h (7 Bft) S-SW 0,00 h 3,02 klux 20 W/m² 6,2 °C
08.05.2026 19:00 11,0 °C 16,3 °C 10,9 °C 73 % 54 % 1019,1 hPa 0,00 l/m² 51,3 km/h (7 Bft) S-SW 0,00 h 2,65 klux 17 W/m² 6,2 °C
08.05.2026 20:00 10,6 °C 16,2 °C 10,5 °C 73 % 55 % 1019,7 hPa 0,00 l/m² 51,3 km/h (7 Bft) S-SW 0,00 h 1,31 klux 9 W/m² 6,0 °C
08.05.2026 21:00 10,3 °C 16,1 °C 10,2 °C 75 % 56 % 1020,2 hPa 0,00 l/m² 51,3 km/h (7 Bft) S-SW 0,00 h 56 lux 0 W/m² 6,1 °C
08.05.2026 22:00 9,8 °C 15,8 °C 9,7 °C 78 % 58 % 1020,3 hPa 0,00 l/m² 51,3 km/h (7 Bft) S-SW 0,00 h 0 lux 0 W/m² 6,1 °C
08.05.2026 23:00 9,7 °C 15,8 °C 9,6 °C 79 % 60 % 1020,3 hPa 0,00 l/m² 51,3 km/h (7 Bft) S-SW 0,00 h 0 lux 0 W/m² 6,2 °C
09.05.2026 00:00 9,4 °C 15,8 °C 9,3 °C 80 % 61 % 1020,3 hPa 0,00 l/m² 51,3 km/h (7 Bft) S-SW 0,00 h 0 lux 0 W/m² 6,1 °C
09.05.2026 01:00 9,3 °C 15,7 °C 9,1 °C 82 % 65 % 1020,3 hPa 0,00 l/m² 51,3 km/h (7 Bft) S-SW 0,00 h 0 lux 0 W/m² 6,3 °C
09.05.2026 02:00 9,3 °C 15,6 °C 9,2 °C 82 % 66 % 1020,3 hPa 0,00 l/m² 51,3 km/h (7 Bft) S-SW 0,00 h 0 lux 0 W/m² 6,5 °C
09.05.2026 03:00 9,1 °C 15,6 °C 8,9 °C 84 % 72 % 1020,3 hPa 0,00 l/m² 51,3 km/h (7 Bft) S-SW 0,00 h 0 lux 0 W/m² 6,5 °C
09.05.2026 04:00 9,1 °C 15,5 °C 8,8 °C 85 % 79 % 1020,3 hPa 0,00 l/m² 51,3 km/h (7 Bft) S-SW 0,00 h 0 lux 0 W/m² 6,7 °C
09.05.2026 05:00 9,0 °C 15,4 °C 8,6 °C 85 % 83 % 1020,4 hPa 0,00 l/m² 51,3 km/h (7 Bft) S-SW 0,00 h 189 lux 2 W/m² 6,6 °C
09.05.2026 06:00 9,3 °C 15,4 °C 8,9 °C 85 % 83 % 1020,3 hPa 0,00 l/m² 51,3 km/h (7 Bft) S-SW 0,00 h 1,73 klux 11 W/m² 6,9 °C
09.05.2026 07:00 9,9 °C 15,4 °C 9,7 °C 84 % 79 % 1020,3 hPa 0,00 l/m² 51,3 km/h (7 Bft) S-SW 0,00 h 4,03 klux 26 W/m² 7,3 °C
09.05.2026 08:00 11,2 °C 15,5 °C 11,4 °C 81 % 62 % 1020,1 hPa 0,00 l/m² 51,3 km/h (7 Bft) S-SW 0,00 h 10,8 klux 70 W/m² 7,9 °C
09.05.2026 09:00 12,2 °C 15,7 °C 12,8 °C 75 % 49 % 1020,0 hPa 0,00 l/m² 51,3 km/h (7 Bft) S-SW 0,00 h 17,3 klux 113 W/m² 7,8 °C
09.05.2026 10:00 13,5 °C 16,1 °C 14,9 °C 70 % 44 % 1019,9 hPa 0,00 l/m² 51,3 km/h (7 Bft) S-SW 0,00 h 32,0 klux 208 W/m² 8,2 °C
09.05.2026 11:00 14,6 °C 16,9 °C 16,0 °C 65 % 42 % 1019,8 hPa 0,00 l/m² 51,3 km/h (7 Bft) S-SW 1,00 h 56,1 klux 365 W/m² 8,0 °C
09.05.2026 12:00 15,9 °C 17,6 °C 17,1 °C 58 % 39 % 1019,6 hPa 0,00 l/m² 51,3 km/h (7 Bft) S-SW 0,75 h 62,4 klux 406 W/m² 7,5 °C
09.05.2026 13:00 16,0 °C 17,9 °C 17,0 °C 55 % 37 % 1019,6 hPa 0,00 l/m² 51,3 km/h (7 Bft) S-SW 0,25 h 43,1 klux 281 W/m² 6,9 °C
09.05.2026 14:00 17,0 °C 18,3 °C 18,0 °C 52 % 36 % 1019,0 hPa 0,00 l/m² 51,3 km/h (7 Bft) S-SW 0,25 h 46,0 klux 300 W/m² 7,0 °C
09.05.2026 15:00 18,7 °C 18,8 °C 20,0 °C 45 % 28 % 1018,0 hPa 0,00 l/m² 51,3 km/h (7 Bft) S-SW 1,00 h 76,4 klux 498 W/m² 6,6 °C
09.05.2026 16:00 18,3 °C 19,5 °C 18,4 °C 47 % 27 % 1017,3 hPa 0,00 l/m² 51,3 km/h (7 Bft) S-SW 0,75 h 59,4 klux 387 W/m² 6,7 °C
09.05.2026 17:00 17,1 °C 19,6 °C 17,6 °C 50 % 30 % 1017,4 hPa 0,00 l/m² 51,3 km/h (7 Bft) S-SW 0,00 h 19,8 klux 129 W/m² 6,5 °C
09.05.2026 18:00 16,6 °C 19,5 °C 17,8 °C 55 % 37 % 1016,5 hPa 0,00 l/m² 51,3 km/h (7 Bft) S-SW 0,75 h 42,0 klux 273 W/m² 7,4 °C
09.05.2026 19:00 17,1 °C 19,6 °C 19,2 °C 55 % 35 % 1016,4 hPa 0,00 l/m² 51,3 km/h (7 Bft) S-SW 0,75 h 19,4 klux 126 W/m² 8,0 °C
09.05.2026 20:00 15,3 °C 19,5 °C 15,8 °C 59 % 42 % 1016,6 hPa 0,00 l/m² 51,3 km/h (7 Bft) S-SW 0,75 h 6,45 klux 42 W/m² 7,4 °C
09.05.2026 21:00 12,4 °C 19,2 °C 12,4 °C 67 % 49 % 1017,4 hPa 0,00 l/m² 51,3 km/h (7 Bft) S-SW 0,00 h 183 lux 0 W/m² 6,4 °C
09.05.2026 22:00 11,6 °C 18,8 °C 11,6 °C 69 % 50 % 1018,0 hPa 0,00 l/m² 51,3 km/h (7 Bft) S-SW 0,00 h 0 lux 0 W/m² 6,0 °C
09.05.2026 23:00 11,4 °C 18,5 °C 11,3 °C 69 % 49 % 1017,3 hPa 0,00 l/m² 51,3 km/h (7 Bft) S-SW 0,00 h 0 lux 0 W/m² 5,8 °C
10.05.2026 00:00 10,7 °C 18,2 °C 10,4 °C 70 % 50 % 1017,1 hPa 0,00 l/m² 51,3 km/h (7 Bft) S-SW 0,00 h 0 lux 0 W/m² 5,5 °C
10.05.2026 01:00 10,2 °C 17,9 °C 10,4 °C 72 % 50 % 1016,9 hPa 0,00 l/m² 51,3 km/h (7 Bft) S-SW 0,00 h 0 lux 0 W/m² 5,4 °C
10.05.2026 02:00 8,4 °C 17,7 °C 8,2 °C 79 % 56 % 1016,3 hPa 0,00 l/m² 51,3 km/h (7 Bft) S-SW 0,00 h 0 lux 0 W/m² 5,0 °C
10.05.2026 03:00 7,8 °C 17,5 °C 7,4 °C 82 % 62 % 1015,6 hPa 0,00 l/m² 51,3 km/h (7 Bft) S-SW 0,00 h 0 lux 0 W/m² 4,9 °C
10.05.2026 04:00 6,8 °C 17,2 °C 6,6 °C 85 % 81 % 1015,4 hPa 0,00 l/m² 51,3 km/h (7 Bft) S-SW 0,00 h 0 lux 0 W/m² 4,4 °C
10.05.2026 05:00 6,5 °C 17,0 °C 5,9 °C 85 % 89 % 1015,5 hPa 0,00 l/m² 51,3 km/h (7 Bft) S-SW 0,00 h 412 lux 6 W/m² 4,1 °C
10.05.2026 06:00 6,7 °C 16,8 °C 9,8 °C 85 % 80 % 1015,5 hPa 0,00 l/m² 51,3 km/h (7 Bft) S-SW 0,25 h 6,36 klux 41 W/m² 4,3 °C
10.05.2026 07:00 11,3 °C 17,3 °C 16,3 °C 79 % 37 % 1013,9 hPa 0,00 l/m² 51,3 km/h (7 Bft) S-SW 0,25 h 14,8 klux 96 W/m² 7,7 °C
10.05.2026 08:00 16,3 °C 17,9 °C 16,0 °C 60 % 37 % 1013,4 hPa 0,00 l/m² 51,3 km/h (7 Bft) S-SW 1,00 h 32,2 klux 210 W/m² 8,5 °C
10.05.2026 09:00 14,7 °C 18,6 °C 15,3 °C 65 % 45 % 1013,6 hPa 0,00 l/m² 51,3 km/h (7 Bft) S-SW 1,00 h 38,9 klux 254 W/m² 8,1 °C
10.05.2026 10:00 16,5 °C 19,5 °C 18,3 °C 65 % 42 % 1012,6 hPa 0,00 l/m² 51,3 km/h (7 Bft) S-SW 1,00 h 54,8 klux 357 W/m² 9,9 °C
10.05.2026 11:00 18,6 °C 20,4 °C 20,7 °C 59 % 37 % 1012,1 hPa 0,00 l/m² 51,3 km/h (7 Bft) S-SW 1,00 h 66,9 klux 436 W/m² 10,5 °C
10.05.2026 12:00 20,0 °C 21,1 °C 21,9 °C 54 % 34 % 1011,2 hPa 0,00 l/m² 51,3 km/h (7 Bft) S-SW 1,00 h 69,5 klux 453 W/m² 10,3 °C
10.05.2026 13:00 20,9 °C 21,6 °C 23,2 °C 49 % 24 % 1010,9 hPa 0,00 l/m² 51,3 km/h (7 Bft) S-SW 1,00 h 74,7 klux 487 W/m² 9,7 °C
10.05.2026 14:00 22,2 °C 22,4 °C 24,2 °C 42 % 15 % 1009,7 hPa 0,00 l/m² 51,3 km/h (7 Bft) S-SW 1,00 h 70,3 klux 458 W/m² 8,5 °C
10.05.2026 15:00 22,6 °C 23,3 °C 24,1 °C 38 % 15 % 1009,3 hPa 0,00 l/m² 51,3 km/h (7 Bft) S-SW 1,23 h 60,8 klux 396 W/m² 7,7 °C
10.05.2026 16:00 22,4 °C 23,9 °C 23,6 °C 38 % 15 % 1008,7 hPa 0,00 l/m² 51,3 km/h (7 Bft) S-SW 0,75 h 60,3 klux 392 W/m² 7,5 °C
10.05.2026 17:00 21,8 °C 24,0 °C 22,8 °C 40 % 15 % 1007,7 hPa 0,00 l/m² 51,3 km/h (7 Bft) S-SW 0,73 h 39,5 klux 257 W/m² 7,5 °C
10.05.2026 18:00 21,0 °C 24,0 °C 21,7 °C 44 % 16 % 1007,2 hPa 0,00 l/m² 51,3 km/h (7 Bft) S-SW 0,98 h 28,0 klux 183 W/m² 8,4 °C
10.05.2026 19:00 20,0 °C 23,9 °C 20,3 °C 53 % 33 % 1006,8 hPa 0,00 l/m² 51,3 km/h (7 Bft) S-SW 0,50 h 11,3 klux 73 W/m² 10,1 °C
10.05.2026 20:00 19,3 °C 23,6 °C 18,8 °C 58 % 40 % 1006,9 hPa 0,00 l/m² 51,3 km/h (7 Bft) S-SW 1,00 h 5,36 klux 35 W/m² 10,7 °C
10.05.2026 21:00 16,4 °C 23,1 °C 16,4 °C 65 % 42 % 1006,7 hPa 0,00 l/m² 51,3 km/h (7 Bft) S-SW 0,00 h 103 lux 0 W/m² 9,7 °C
10.05.2026 22:00 15,5 °C 22,6 °C 15,5 °C 68 % 45 % 1006,5 hPa 0,00 l/m² 51,3 km/h (7 Bft) S-SW 0,00 h 0 lux 0 W/m² 9,6 °C
10.05.2026 23:00 14,4 °C 22,3 °C 14,4 °C 73 % 48 % 1006,4 hPa 0,00 l/m² 51,3 km/h (7 Bft) S-SW 0,00 h 0 lux 0 W/m² 9,5 °C
Min-Datum _ 08.05.26 09.05.26 08.05.26 10.05.26 04.05.26 06.05.26 - 04.05.26 - - - - 08.05.26
_ Min-Zeit 06:15 05:15 06:00 15:15 00:00 06:00 - 00:00 - - - - 06:00
Minimum _ 6,0 °C 15,4 °C 5,2 °C 38 % 15 % 1003,7 hPa - 51,3 km/h (7 Bft) - - - - 3,9 °C
Max-Datum _ 04.05.26 04.05.26 04.05.26 07.05.26 05.05.26 09.05.26 06.05.26 04.05.26 - 04.05.26 09.05.26 09.05.26 05.05.26
_ Max-Zeit 16:15 17:00 16:00 09:15 06:45 05:15 14:00 00:00 - 11:00 12:15 12:15 11:00
Maximum _ 23,3 °C 25,9 °C 25,1 °C 87 % 95 % 1020,4 hPa 7,92 l/m² 51,3 km/h
S-SW (7 Bft)
- 0,25 h 105 klux 684 W/m² 13,8 °C
Durchschnitt _ 13,1 °C 19,8 °C 13,1 °C 73 % 60 % 1012,6 hPa #40,81 l/m² 51,3 km/h (7 Bft) S-SW #31:12 h 15,8 klux 160 W/m² 8,2 °C